sensor_id;sensor_type;location;lat;lon;timestamp;temperature;humidity
12015;DHT22;6066;48.138;16.402;2023-02-28T00:00:13;0.00;99.90
12015;DHT22;6066;48.138;16.402;2023-02-28T00:02:41;0.00;99.90
12015;DHT22;6066;48.138;16.402;2023-02-28T00:05:08;-0.10;99.90
12015;DHT22;6066;48.138;16.402;2023-02-28T00:07:35;-0.10;99.90
12015;DHT22;6066;48.138;16.402;2023-02-28T00:10:02;0.00;99.90
12015;DHT22;6066;48.138;16.402;2023-02-28T00:12:29;-0.10;99.90
12015;DHT22;6066;48.138;16.402;2023-02-28T00:14:56;-0.10;99.90
12015;DHT22;6066;48.138;16.402;2023-02-28T00:17:24;-0.10;99.90
12015;DHT22;6066;48.138;16.402;2023-02-28T00:19:51;-0.10;99.90
12015;DHT22;6066;48.138;16.402;2023-02-28T00:22:18;-0.10;99.90
12015;DHT22;6066;48.138;16.402;2023-02-28T00:24:45;-0.10;99.90
12015;DHT22;6066;48.138;16.402;2023-02-28T00:27:12;-0.10;99.90
12015;DHT22;6066;48.138;16.402;2023-02-28T00:29:39;-0.10;99.90
12015;DHT22;6066;48.138;16.402;2023-02-28T00:32:06;-0.10;99.90
12015;DHT22;6066;48.138;16.402;2023-02-28T00:34:34;-0.10;99.90
12015;DHT22;6066;48.138;16.402;2023-02-28T00:37:03;0.00;99.90
12015;DHT22;6066;48.138;16.402;2023-02-28T00:39:33;-0.10;99.90
12015;DHT22;6066;48.138;16.402;2023-02-28T00:41:59;0.00;99.90
12015;DHT22;6066;48.138;16.402;2023-02-28T00:44:26;0.00;99.90
12015;DHT22;6066;48.138;16.402;2023-02-28T00:46:53;0.00;99.90
12015;DHT22;6066;48.138;16.402;2023-02-28T00:49:20;0.00;99.90
12015;DHT22;6066;48.138;16.402;2023-02-28T00:51:48;0.00;99.90
12015;DHT22;6066;48.138;16.402;2023-02-28T00:54:15;0.00;99.90
12015;DHT22;6066;48.138;16.402;2023-02-28T00:56:42;0.00;99.90
12015;DHT22;6066;48.138;16.402;2023-02-28T00:59:11;0.00;99.90
12015;DHT22;6066;48.138;16.402;2023-02-28T01:01:38;0.00;99.90
12015;DHT22;6066;48.138;16.402;2023-02-28T01:04:04;0.00;99.90
12015;DHT22;6066;48.138;16.402;2023-02-28T01:06:31;0.00;99.90
12015;DHT22;6066;48.138;16.402;2023-02-28T01:08:59;0.00;99.90
12015;DHT22;6066;48.138;16.402;2023-02-28T01:11:26;0.00;99.90
12015;DHT22;6066;48.138;16.402;2023-02-28T01:13:53;0.00;99.90
12015;DHT22;6066;48.138;16.402;2023-02-28T01:16:19;0.00;99.90
12015;DHT22;6066;48.138;16.402;2023-02-28T01:18:46;-0.10;99.90
12015;DHT22;6066;48.138;16.402;2023-02-28T01:21:13;-0.10;99.90
12015;DHT22;6066;48.138;16.402;2023-02-28T01:23:41;-0.10;99.90
12015;DHT22;6066;48.138;16.402;2023-02-28T01:26:10;-0.10;99.90
12015;DHT22;6066;48.138;16.402;2023-02-28T01:28:37;-0.10;99.90
12015;DHT22;6066;48.138;16.402;2023-02-28T01:31:04;-0.10;99.90
12015;DHT22;6066;48.138;16.402;2023-02-28T01:33:31;-0.10;99.90
12015;DHT22;6066;48.138;16.402;2023-02-28T01:35:58;-0.10;99.90
12015;DHT22;6066;48.138;16.402;2023-02-28T01:38:24;-0.10;99.90
12015;DHT22;6066;48.138;16.402;2023-02-28T01:40:51;-0.10;99.90
12015;DHT22;6066;48.138;16.402;2023-02-28T01:43:23;0.00;99.90
12015;DHT22;6066;48.138;16.402;2023-02-28T01:45:50;0.00;99.90
12015;DHT22;6066;48.138;16.402;2023-02-28T01:48:18;0.00;99.90
12015;DHT22;6066;48.138;16.402;2023-02-28T01:50:45;0.00;99.90
12015;DHT22;6066;48.138;16.402;2023-02-28T01:53:13;0.00;99.90
12015;DHT22;6066;48.138;16.402;2023-02-28T01:55:40;0.00;99.90
12015;DHT22;6066;48.138;16.402;2023-02-28T01:58:08;0.00;99.90
12015;DHT22;6066;48.138;16.402;2023-02-28T02:00:36;0.00;99.90
12015;DHT22;6066;48.138;16.402;2023-02-28T02:03:05;0.00;99.90
12015;DHT22;6066;48.138;16.402;2023-02-28T02:05:33;-0.10;99.90
12015;DHT22;6066;48.138;16.402;2023-02-28T02:08:01;-0.10;99.90
12015;DHT22;6066;48.138;16.402;2023-02-28T02:10:29;-0.10;99.90
12015;DHT22;6066;48.138;16.402;2023-02-28T02:15:55;-0.20;99.90
12015;DHT22;6066;48.138;16.402;2023-02-28T02:18:26;-0.30;99.90
12015;DHT22;6066;48.138;16.402;2023-02-28T02:23:47;-0.30;99.90
12015;DHT22;6066;48.138;16.402;2023-02-28T02:26:44;-0.40;99.90
12015;DHT22;6066;48.138;16.402;2023-02-28T02:29:21;-0.50;99.90
12015;DHT22;6066;48.138;16.402;2023-02-28T02:31:54;-0.50;99.90
12015;DHT22;6066;48.138;16.402;2023-02-28T02:34:36;-0.50;99.90
12015;DHT22;6066;48.138;16.402;2023-02-28T02:37:10;-0.60;99.90
12015;DHT22;6066;48.138;16.402;2023-02-28T02:39:40;-0.60;99.90
12015;DHT22;6066;48.138;16.402;2023-02-28T02:42:11;-0.60;99.90
12015;DHT22;6066;48.138;16.402;2023-02-28T02:44:43;-0.50;99.90
12015;DHT22;6066;48.138;16.402;2023-02-28T02:47:12;-0.50;99.90
12015;DHT22;6066;48.138;16.402;2023-02-28T02:49:43;-0.50;99.90
12015;DHT22;6066;48.138;16.402;2023-02-28T02:52:12;-0.50;99.90
12015;DHT22;6066;48.138;16.402;2023-02-28T02:54:41;-0.50;99.90
12015;DHT22;6066;48.138;16.402;2023-02-28T02:57:11;-0.50;99.90
12015;DHT22;6066;48.138;16.402;2023-02-28T02:59:40;-0.40;99.90
12015;DHT22;6066;48.138;16.402;2023-02-28T03:02:08;-0.50;99.90
12015;DHT22;6066;48.138;16.402;2023-02-28T03:04:38;-0.50;99.90
12015;DHT22;6066;48.138;16.402;2023-02-28T03:07:07;-0.50;99.90
12015;DHT22;6066;48.138;16.402;2023-02-28T03:09:34;-0.60;99.90
12015;DHT22;6066;48.138;16.402;2023-02-28T03:12:02;-0.60;99.90
12015;DHT22;6066;48.138;16.402;2023-02-28T03:14:36;-0.70;99.90
12015;DHT22;6066;48.138;16.402;2023-02-28T03:17:16;-0.80;99.90
12015;DHT22;6066;48.138;16.402;2023-02-28T03:19:50;-0.80;99.90
12015;DHT22;6066;48.138;16.402;2023-02-28T03:22:28;-0.90;99.90
12015;DHT22;6066;48.138;16.402;2023-02-28T03:25:01;-0.90;99.90
12015;DHT22;6066;48.138;16.402;2023-02-28T03:27:34;-1.00;99.90
12015;DHT22;6066;48.138;16.402;2023-02-28T03:30:03;-1.00;99.90
12015;DHT22;6066;48.138;16.402;2023-02-28T03:32:33;-1.10;99.90
12015;DHT22;6066;48.138;16.402;2023-02-28T03:35:01;-1.10;99.90
12015;DHT22;6066;48.138;16.402;2023-02-28T03:37:32;-1.10;99.90
12015;DHT22;6066;48.138;16.402;2023-02-28T03:40:02;-1.10;99.90
12015;DHT22;6066;48.138;16.402;2023-02-28T03:42:32;-1.10;99.90
12015;DHT22;6066;48.138;16.402;2023-02-28T03:45:01;-1.00;99.90
12015;DHT22;6066;48.138;16.402;2023-02-28T03:47:29;-1.00;99.90
12015;DHT22;6066;48.138;16.402;2023-02-28T03:49:59;-0.90;99.90
12015;DHT22;6066;48.138;16.402;2023-02-28T03:52:28;-0.80;99.90
12015;DHT22;6066;48.138;16.402;2023-02-28T03:54:58;-0.80;99.90
12015;DHT22;6066;48.138;16.402;2023-02-28T03:57:31;-0.70;99.90
12015;DHT22;6066;48.138;16.402;2023-02-28T04:00:00;-0.70;99.90
12015;DHT22;6066;48.138;16.402;2023-02-28T04:02:29;-0.60;99.90
12015;DHT22;6066;48.138;16.402;2023-02-28T04:04:56;-0.60;99.90
12015;DHT22;6066;48.138;16.402;2023-02-28T04:07:22;-0.60;99.90
12015;DHT22;6066;48.138;16.402;2023-02-28T04:09:49;-0.50;99.90
12015;DHT22;6066;48.138;16.402;2023-02-28T04:12:17;-0.50;99.90
12015;DHT22;6066;48.138;16.402;2023-02-28T04:14:44;-0.50;99.90
12015;DHT22;6066;48.138;16.402;2023-02-28T04:17:11;-0.50;99.90
12015;DHT22;6066;48.138;16.402;2023-02-28T04:19:37;-0.50;99.90
12015;DHT22;6066;48.138;16.402;2023-02-28T04:22:04;-0.60;99.90
12015;DHT22;6066;48.138;16.402;2023-02-28T04:24:31;-0.70;99.90
12015;DHT22;6066;48.138;16.402;2023-02-28T04:26:57;-0.80;99.90
12015;DHT22;6066;48.138;16.402;2023-02-28T04:29:26;-0.80;99.90
12015;DHT22;6066;48.138;16.402;2023-02-28T04:31:53;-0.90;99.90
12015;DHT22;6066;48.138;16.402;2023-02-28T04:34:20;-0.90;99.90
12015;DHT22;6066;48.138;16.402;2023-02-28T04:36:46;-1.00;99.90
12015;DHT22;6066;48.138;16.402;2023-02-28T04:39:14;-1.10;99.90
12015;DHT22;6066;48.138;16.402;2023-02-28T04:41:41;-1.10;99.90
12015;DHT22;6066;48.138;16.402;2023-02-28T04:44:07;-1.10;99.90
12015;DHT22;6066;48.138;16.402;2023-02-28T04:46:35;-1.10;99.90
12015;DHT22;6066;48.138;16.402;2023-02-28T04:49:02;-1.10;99.90
12015;DHT22;6066;48.138;16.402;2023-02-28T04:51:29;-1.10;99.90
12015;DHT22;6066;48.138;16.402;2023-02-28T04:53:56;-1.10;99.90
12015;DHT22;6066;48.138;16.402;2023-02-28T04:56:23;-1.20;99.90
12015;DHT22;6066;48.138;16.402;2023-02-28T04:58:49;-1.20;99.90
12015;DHT22;6066;48.138;16.402;2023-02-28T05:01:20;-1.20;99.90
12015;DHT22;6066;48.138;16.402;2023-02-28T05:03:48;-1.20;99.90
12015;DHT22;6066;48.138;16.402;2023-02-28T05:06:15;-1.20;99.90
12015;DHT22;6066;48.138;16.402;2023-02-28T05:08:42;-1.20;99.90
12015;DHT22;6066;48.138;16.402;2023-02-28T05:11:12;-1.20;99.90
12015;DHT22;6066;48.138;16.402;2023-02-28T05:13:40;-1.10;99.90
12015;DHT22;6066;48.138;16.402;2023-02-28T05:16:06;-1.10;99.90
12015;DHT22;6066;48.138;16.402;2023-02-28T05:18:33;-1.10;99.90
12015;DHT22;6066;48.138;16.402;2023-02-28T05:21:01;-1.10;99.90
12015;DHT22;6066;48.138;16.402;2023-02-28T05:23:28;-1.10;99.90
12015;DHT22;6066;48.138;16.402;2023-02-28T05:25:55;-1.10;99.90
12015;DHT22;6066;48.138;16.402;2023-02-28T05:28:21;-1.20;99.90
12015;DHT22;6066;48.138;16.402;2023-02-28T05:30:48;-1.10;99.90
12015;DHT22;6066;48.138;16.402;2023-02-28T05:33:15;-1.20;99.90
12015;DHT22;6066;48.138;16.402;2023-02-28T05:35:41;-1.10;99.90
12015;DHT22;6066;48.138;16.402;2023-02-28T05:38:10;-1.10;99.90
12015;DHT22;6066;48.138;16.402;2023-02-28T05:40:37;-1.10;99.90
12015;DHT22;6066;48.138;16.402;2023-02-28T05:43:04;-1.10;99.90
12015;DHT22;6066;48.138;16.402;2023-02-28T05:45:31;-1.10;99.90
12015;DHT22;6066;48.138;16.402;2023-02-28T05:47:57;-1.10;99.90
12015;DHT22;6066;48.138;16.402;2023-02-28T05:50:24;-1.10;99.90
12015;DHT22;6066;48.138;16.402;2023-02-28T05:52:51;-1.10;99.90
12015;DHT22;6066;48.138;16.402;2023-02-28T05:55:19;-1.10;99.90
12015;DHT22;6066;48.138;16.402;2023-02-28T05:57:45;-1.10;99.90
12015;DHT22;6066;48.138;16.402;2023-02-28T06:00:13;-1.10;99.90
12015;DHT22;6066;48.138;16.402;2023-02-28T06:02:41;-1.10;99.90
12015;DHT22;6066;48.138;16.402;2023-02-28T06:05:09;-1.10;99.90
12015;DHT22;6066;48.138;16.402;2023-02-28T06:07:39;-1.10;99.90
12015;DHT22;6066;48.138;16.402;2023-02-28T06:10:06;-1.00;99.90
12015;DHT22;6066;48.138;16.402;2023-02-28T06:12:34;-1.00;99.90
12015;DHT22;6066;48.138;16.402;2023-02-28T06:15:01;-0.90;99.90
12015;DHT22;6066;48.138;16.402;2023-02-28T06:17:27;-0.90;99.90
12015;DHT22;6066;48.138;16.402;2023-02-28T06:19:54;-0.90;99.90
12015;DHT22;6066;48.138;16.402;2023-02-28T06:22:21;-0.80;99.90
12015;DHT22;6066;48.138;16.402;2023-02-28T06:24:47;-0.80;99.90
12015;DHT22;6066;48.138;16.402;2023-02-28T06:27:14;-0.70;99.90
12015;DHT22;6066;48.138;16.402;2023-02-28T06:29:42;-0.70;99.90
12015;DHT22;6066;48.138;16.402;2023-02-28T06:32:09;-0.60;99.90
12015;DHT22;6066;48.138;16.402;2023-02-28T06:34:35;-0.50;99.90
12015;DHT22;6066;48.138;16.402;2023-02-28T06:37:02;-0.50;99.90
12015;DHT22;6066;48.138;16.402;2023-02-28T06:39:29;-0.40;99.90
12015;DHT22;6066;48.138;16.402;2023-02-28T06:41:55;-0.40;99.90
12015;DHT22;6066;48.138;16.402;2023-02-28T06:44:22;-0.30;99.90
12015;DHT22;6066;48.138;16.402;2023-02-28T06:46:50;-0.30;99.90
12015;DHT22;6066;48.138;16.402;2023-02-28T06:49:17;-0.20;99.90
12015;DHT22;6066;48.138;16.402;2023-02-28T06:51:44;-0.10;99.90
12015;DHT22;6066;48.138;16.402;2023-02-28T06:54:11;0.00;99.90
12015;DHT22;6066;48.138;16.402;2023-02-28T06:56:38;0.10;99.90
12015;DHT22;6066;48.138;16.402;2023-02-28T06:59:04;0.20;99.90
12015;DHT22;6066;48.138;16.402;2023-02-28T07:01:31;0.20;99.90
12015;DHT22;6066;48.138;16.402;2023-02-28T07:04:00;0.30;99.90
12015;DHT22;6066;48.138;16.402;2023-02-28T07:06:27;0.30;99.90
12015;DHT22;6066;48.138;16.402;2023-02-28T07:08:54;0.40;99.90
12015;DHT22;6066;48.138;16.402;2023-02-28T07:11:20;0.40;99.90
12015;DHT22;6066;48.138;16.402;2023-02-28T07:13:47;0.40;99.90
12015;DHT22;6066;48.138;16.402;2023-02-28T07:16:14;0.50;99.90
12015;DHT22;6066;48.138;16.402;2023-02-28T07:18:41;0.60;99.90
12015;DHT22;6066;48.138;16.402;2023-02-28T07:21:11;0.60;99.90
12015;DHT22;6066;48.138;16.402;2023-02-28T07:23:38;0.70;99.90
12015;DHT22;6066;48.138;16.402;2023-02-28T07:26:05;0.70;99.90
12015;DHT22;6066;48.138;16.402;2023-02-28T07:28:32;0.80;99.90
12015;DHT22;6066;48.138;16.402;2023-02-28T07:31:02;0.90;99.90
12015;DHT22;6066;48.138;16.402;2023-02-28T07:33:29;0.90;99.90
12015;DHT22;6066;48.138;16.402;2023-02-28T07:35:59;1.00;99.90
12015;DHT22;6066;48.138;16.402;2023-02-28T07:38:27;1.00;99.90
12015;DHT22;6066;48.138;16.402;2023-02-28T07:40:54;1.10;99.90
12015;DHT22;6066;48.138;16.402;2023-02-28T07:43:21;1.10;99.90
12015;DHT22;6066;48.138;16.402;2023-02-28T07:45:47;1.00;99.90
12015;DHT22;6066;48.138;16.402;2023-02-28T07:48:14;1.10;99.90
12015;DHT22;6066;48.138;16.402;2023-02-28T07:50:41;1.10;99.90
12015;DHT22;6066;48.138;16.402;2023-02-28T07:53:07;1.20;99.90
12015;DHT22;6066;48.138;16.402;2023-02-28T07:55:35;1.30;99.90
12015;DHT22;6066;48.138;16.402;2023-02-28T07:58:02;1.40;99.90
12015;DHT22;6066;48.138;16.402;2023-02-28T08:00:29;1.40;99.90
12015;DHT22;6066;48.138;16.402;2023-02-28T08:02:57;1.50;99.90
12015;DHT22;6066;48.138;16.402;2023-02-28T08:05:24;1.50;99.90
12015;DHT22;6066;48.138;16.402;2023-02-28T08:07:50;1.50;99.90
12015;DHT22;6066;48.138;16.402;2023-02-28T08:10:18;1.50;99.90
12015;DHT22;6066;48.138;16.402;2023-02-28T08:12:46;1.60;99.90
12015;DHT22;6066;48.138;16.402;2023-02-28T08:15:13;1.60;99.90
12015;DHT22;6066;48.138;16.402;2023-02-28T08:17:39;1.70;99.90
12015;DHT22;6066;48.138;16.402;2023-02-28T08:20:07;1.80;99.90
12015;DHT22;6066;48.138;16.402;2023-02-28T08:22:35;1.80;99.90
12015;DHT22;6066;48.138;16.402;2023-02-28T08:25:02;1.90;99.90
12015;DHT22;6066;48.138;16.402;2023-02-28T08:27:29;2.00;99.90
12015;DHT22;6066;48.138;16.402;2023-02-28T08:29:57;2.10;99.90
12015;DHT22;6066;48.138;16.402;2023-02-28T08:32:24;2.20;99.90
12015;DHT22;6066;48.138;16.402;2023-02-28T08:34:50;2.30;99.90
12015;DHT22;6066;48.138;16.402;2023-02-28T08:37:17;2.30;99.90
12015;DHT22;6066;48.138;16.402;2023-02-28T08:39:44;2.30;99.90
12015;DHT22;6066;48.138;16.402;2023-02-28T08:42:11;2.30;99.90
12015;DHT22;6066;48.138;16.402;2023-02-28T08:44:37;2.40;99.90
12015;DHT22;6066;48.138;16.402;2023-02-28T08:47:07;2.50;99.90
12015;DHT22;6066;48.138;16.402;2023-02-28T08:49:33;2.60;99.90
12015;DHT22;6066;48.138;16.402;2023-02-28T08:52:00;2.60;99.90
12015;DHT22;6066;48.138;16.402;2023-02-28T08:54:27;2.60;99.90
12015;DHT22;6066;48.138;16.402;2023-02-28T08:56:56;2.60;99.90
12015;DHT22;6066;48.138;16.402;2023-02-28T08:59:22;2.70;99.90
12015;DHT22;6066;48.138;16.402;2023-02-28T09:01:49;2.70;99.90
12015;DHT22;6066;48.138;16.402;2023-02-28T09:04:17;2.70;99.90
12015;DHT22;6066;48.138;16.402;2023-02-28T09:06:44;2.70;99.90
12015;DHT22;6066;48.138;16.402;2023-02-28T09:09:10;2.80;99.90
12015;DHT22;6066;48.138;16.402;2023-02-28T09:11:37;2.90;99.90
12015;DHT22;6066;48.138;16.402;2023-02-28T09:14:04;3.00;99.90
12015;DHT22;6066;48.138;16.402;2023-02-28T09:16:33;3.10;99.90
12015;DHT22;6066;48.138;16.402;2023-02-28T09:19:00;3.10;99.90
12015;DHT22;6066;48.138;16.402;2023-02-28T09:21:28;3.00;99.90
12015;DHT22;6066;48.138;16.402;2023-02-28T09:23:54;2.80;99.90
12015;DHT22;6066;48.138;16.402;2023-02-28T09:26:22;2.70;99.90
12015;DHT22;6066;48.138;16.402;2023-02-28T09:28:49;2.60;99.90
12015;DHT22;6066;48.138;16.402;2023-02-28T09:31:18;2.60;99.90
12015;DHT22;6066;48.138;16.402;2023-02-28T09:33:46;2.60;99.90
12015;DHT22;6066;48.138;16.402;2023-02-28T09:36:12;2.60;99.90
12015;DHT22;6066;48.138;16.402;2023-02-28T09:38:40;2.60;99.90
12015;DHT22;6066;48.138;16.402;2023-02-28T09:41:11;2.70;99.90
12015;DHT22;6066;48.138;16.402;2023-02-28T09:43:40;2.70;99.90
12015;DHT22;6066;48.138;16.402;2023-02-28T09:46:12;2.80;99.90
12015;DHT22;6066;48.138;16.402;2023-02-28T09:48:41;2.90;99.90
12015;DHT22;6066;48.138;16.402;2023-02-28T09:51:12;3.00;99.90
12015;DHT22;6066;48.138;16.402;2023-02-28T09:53:42;3.20;99.90
12015;DHT22;6066;48.138;16.402;2023-02-28T09:56:09;3.30;99.90
12015;DHT22;6066;48.138;16.402;2023-02-28T09:58:37;3.60;99.90
12015;DHT22;6066;48.138;16.402;2023-02-28T10:01:09;3.70;99.90
12015;DHT22;6066;48.138;16.402;2023-02-28T10:03:39;3.90;99.90
12015;DHT22;6066;48.138;16.402;2023-02-28T10:06:07;4.10;99.90
12015;DHT22;6066;48.138;16.402;2023-02-28T10:08:36;4.30;99.90
12015;DHT22;6066;48.138;16.402;2023-02-28T10:11:09;4.40;99.90
12015;DHT22;6066;48.138;16.402;2023-02-28T10:13:39;4.50;99.90
12015;DHT22;6066;48.138;16.402;2023-02-28T10:16:08;4.60;99.90
12015;DHT22;6066;48.138;16.402;2023-02-28T10:18:39;4.70;99.90
12015;DHT22;6066;48.138;16.402;2023-02-28T10:21:10;4.70;99.90
12015;DHT22;6066;48.138;16.402;2023-02-28T10:23:40;4.80;99.90
12015;DHT22;6066;48.138;16.402;2023-02-28T10:26:10;4.80;99.90
12015;DHT22;6066;48.138;16.402;2023-02-28T10:28:38;4.80;99.90
12015;DHT22;6066;48.138;16.402;2023-02-28T10:31:04;4.90;99.90
12015;DHT22;6066;48.138;16.402;2023-02-28T10:33:32;4.90;99.90
12015;DHT22;6066;48.138;16.402;2023-02-28T10:35:59;5.00;99.90
12015;DHT22;6066;48.138;16.402;2023-02-28T10:38:27;5.10;99.90
12015;DHT22;6066;48.138;16.402;2023-02-28T10:41:02;5.10;99.90
12015;DHT22;6066;48.138;16.402;2023-02-28T10:43:31;5.10;99.90
12015;DHT22;6066;48.138;16.402;2023-02-28T10:45:58;5.10;99.90
12015;DHT22;6066;48.138;16.402;2023-02-28T10:48:27;5.10;99.90
12015;DHT22;6066;48.138;16.402;2023-02-28T10:50:55;5.10;99.90
12015;DHT22;6066;48.138;16.402;2023-02-28T10:53:33;5.00;99.90
12015;DHT22;6066;48.138;16.402;2023-02-28T10:56:01;5.10;99.90
12015;DHT22;6066;48.138;16.402;2023-02-28T10:58:29;5.10;99.90
12015;DHT22;6066;48.138;16.402;2023-02-28T11:00:58;5.20;99.90
12015;DHT22;6066;48.138;16.402;2023-02-28T11:03:28;5.30;99.90
12015;DHT22;6066;48.138;16.402;2023-02-28T11:05:55;5.30;99.90
12015;DHT22;6066;48.138;16.402;2023-02-28T11:08:21;5.30;99.90
12015;DHT22;6066;48.138;16.402;2023-02-28T11:10:53;5.30;99.90
12015;DHT22;6066;48.138;16.402;2023-02-28T11:13:20;5.30;99.90
12015;DHT22;6066;48.138;16.402;2023-02-28T11:15:51;5.30;99.90
12015;DHT22;6066;48.138;16.402;2023-02-28T11:18:21;5.30;99.90
12015;DHT22;6066;48.138;16.402;2023-02-28T11:20:49;5.30;99.90
12015;DHT22;6066;48.138;16.402;2023-02-28T11:23:16;5.40;99.90
12015;DHT22;6066;48.138;16.402;2023-02-28T11:25:46;5.50;99.90
12015;DHT22;6066;48.138;16.402;2023-02-28T11:28:23;5.50;99.90
12015;DHT22;6066;48.138;16.402;2023-02-28T11:30:59;5.40;99.90
12015;DHT22;6066;48.138;16.402;2023-02-28T11:33:28;5.30;99.90
12015;DHT22;6066;48.138;16.402;2023-02-28T11:35:55;5.20;99.90
12015;DHT22;6066;48.138;16.402;2023-02-28T11:38:25;5.10;99.90
12015;DHT22;6066;48.138;16.402;2023-02-28T11:40:56;5.10;99.90
12015;DHT22;6066;48.138;16.402;2023-02-28T11:43:30;5.10;99.90
12015;DHT22;6066;48.138;16.402;2023-02-28T11:46:05;5.20;99.90
12015;DHT22;6066;48.138;16.402;2023-02-28T11:48:36;5.30;99.90
12015;DHT22;6066;48.138;16.402;2023-02-28T11:51:08;5.50;99.90
12015;DHT22;6066;48.138;16.402;2023-02-28T11:56:22;5.90;99.90
12015;DHT22;6066;48.138;16.402;2023-02-28T11:58:53;6.10;99.90
12015;DHT22;6066;48.138;16.402;2023-02-28T12:01:24;6.20;99.90
12015;DHT22;6066;48.138;16.402;2023-02-28T12:03:57;6.30;99.90
12015;DHT22;6066;48.138;16.402;2023-02-28T12:06:25;6.30;99.90
12015;DHT22;6066;48.138;16.402;2023-02-28T12:08:59;6.10;99.90
12015;DHT22;6066;48.138;16.402;2023-02-28T12:11:31;5.90;99.90
12015;DHT22;6066;48.138;16.402;2023-02-28T12:14:04;5.70;99.90
12015;DHT22;6066;48.138;16.402;2023-02-28T12:16:36;5.50;99.90
12015;DHT22;6066;48.138;16.402;2023-02-28T12:19:19;5.50;99.90
12015;DHT22;6066;48.138;16.402;2023-02-28T12:22:01;5.70;99.90
12015;DHT22;6066;48.138;16.402;2023-02-28T12:24:38;6.00;99.90
12015;DHT22;6066;48.138;16.402;2023-02-28T12:27:06;6.20;99.90
12015;DHT22;6066;48.138;16.402;2023-02-28T12:29:37;6.30;99.90
12015;DHT22;6066;48.138;16.402;2023-02-28T12:32:09;6.50;99.90
12015;DHT22;6066;48.138;16.402;2023-02-28T12:34:41;6.50;99.90
12015;DHT22;6066;48.138;16.402;2023-02-28T12:37:10;6.50;99.90
12015;DHT22;6066;48.138;16.402;2023-02-28T12:39:40;6.30;99.90
12015;DHT22;6066;48.138;16.402;2023-02-28T12:42:10;6.30;99.90
12015;DHT22;6066;48.138;16.402;2023-02-28T12:44:40;6.40;99.90
12015;DHT22;6066;48.138;16.402;2023-02-28T12:47:11;6.60;99.90
12015;DHT22;6066;48.138;16.402;2023-02-28T12:49:42;6.80;99.90
12015;DHT22;6066;48.138;16.402;2023-02-28T12:52:11;6.90;99.90
12015;DHT22;6066;48.138;16.402;2023-02-28T12:54:43;7.00;99.90
12015;DHT22;6066;48.138;16.402;2023-02-28T12:57:12;7.00;99.90
12015;DHT22;6066;48.138;16.402;2023-02-28T12:59:41;6.70;99.90
12015;DHT22;6066;48.138;16.402;2023-02-28T13:02:16;6.50;99.90
12015;DHT22;6066;48.138;16.402;2023-02-28T13:04:54;6.40;99.90
12015;DHT22;6066;48.138;16.402;2023-02-28T13:10:07;6.20;99.90
12015;DHT22;6066;48.138;16.402;2023-02-28T13:12:34;6.30;99.90
12015;DHT22;6066;48.138;16.402;2023-02-28T13:15:03;6.50;99.90
12015;DHT22;6066;48.138;16.402;2023-02-28T13:17:30;6.60;99.90
12015;DHT22;6066;48.138;16.402;2023-02-28T13:19:59;6.60;99.90
12015;DHT22;6066;48.138;16.402;2023-02-28T13:22:39;6.60;99.90
12015;DHT22;6066;48.138;16.402;2023-02-28T13:27:56;6.20;99.90
12015;DHT22;6066;48.138;16.402;2023-02-28T13:33:24;5.70;99.90
12015;DHT22;6066;48.138;16.402;2023-02-28T13:36:05;5.80;99.90
12015;DHT22;6066;48.138;16.402;2023-02-28T13:38:34;5.90;99.90
12015;DHT22;6066;48.138;16.402;2023-02-28T13:43:59;6.20;99.90
12015;DHT22;6066;48.138;16.402;2023-02-28T13:46:27;6.10;99.90
12015;DHT22;6066;48.138;16.402;2023-02-28T13:48:53;6.10;99.90
12015;DHT22;6066;48.138;16.402;2023-02-28T13:51:39;6.20;99.90
12015;DHT22;6066;48.138;16.402;2023-02-28T13:56:55;6.40;99.90
12015;DHT22;6066;48.138;16.402;2023-02-28T13:59:25;6.50;99.90
12015;DHT22;6066;48.138;16.402;2023-02-28T14:01:56;6.50;99.90
12015;DHT22;6066;48.138;16.402;2023-02-28T14:07:23;6.80;99.90
12015;DHT22;6066;48.138;16.402;2023-02-28T14:09:54;6.80;99.90
12015;DHT22;6066;48.138;16.402;2023-02-28T14:17:50;6.30;99.90
12015;DHT22;6066;48.138;16.402;2023-02-28T14:20:17;6.00;99.90
12015;DHT22;6066;48.138;16.402;2023-02-28T14:22:49;6.00;99.90
12015;DHT22;6066;48.138;16.402;2023-02-28T14:25:20;6.00;99.90
12015;DHT22;6066;48.138;16.402;2023-02-28T14:27:50;6.00;99.90
12015;DHT22;6066;48.138;16.402;2023-02-28T14:35:57;6.10;99.90
12015;DHT22;6066;48.138;16.402;2023-02-28T14:38:29;6.10;99.90
12015;DHT22;6066;48.138;16.402;2023-02-28T14:40:58;6.20;99.90
12015;DHT22;6066;48.138;16.402;2023-02-28T14:43:27;6.20;99.90
12015;DHT22;6066;48.138;16.402;2023-02-28T14:45:55;6.20;99.90
12015;DHT22;6066;48.138;16.402;2023-02-28T14:48:22;6.20;99.90
12015;DHT22;6066;48.138;16.402;2023-02-28T14:50:49;6.20;99.90
12015;DHT22;6066;48.138;16.402;2023-02-28T14:53:17;6.20;99.90
12015;DHT22;6066;48.138;16.402;2023-02-28T14:55:46;6.20;99.90
12015;DHT22;6066;48.138;16.402;2023-02-28T14:58:18;6.30;99.90
12015;DHT22;6066;48.138;16.402;2023-02-28T15:00:47;6.30;99.90
12015;DHT22;6066;48.138;16.402;2023-02-28T15:03:17;6.20;99.90
12015;DHT22;6066;48.138;16.402;2023-02-28T15:05:50;6.10;99.90
12015;DHT22;6066;48.138;16.402;2023-02-28T15:08:17;5.90;99.90
12015;DHT22;6066;48.138;16.402;2023-02-28T15:10:50;5.80;99.90
12015;DHT22;6066;48.138;16.402;2023-02-28T15:13:18;5.70;99.90
12015;DHT22;6066;48.138;16.402;2023-02-28T15:15:46;5.60;99.90
12015;DHT22;6066;48.138;16.402;2023-02-28T15:18:15;5.60;99.90
12015;DHT22;6066;48.138;16.402;2023-02-28T15:20:42;5.60;99.90
12015;DHT22;6066;48.138;16.402;2023-02-28T15:23:10;5.60;99.90
12015;DHT22;6066;48.138;16.402;2023-02-28T15:25:37;5.50;99.90
12015;DHT22;6066;48.138;16.402;2023-02-28T15:28:05;5.50;99.90
12015;DHT22;6066;48.138;16.402;2023-02-28T15:30:32;5.50;99.90
12015;DHT22;6066;48.138;16.402;2023-02-28T15:33:06;5.60;99.90
12015;DHT22;6066;48.138;16.402;2023-02-28T15:35:33;5.50;99.90
12015;DHT22;6066;48.138;16.402;2023-02-28T15:38:01;5.50;99.90
12015;DHT22;6066;48.138;16.402;2023-02-28T15:40:29;5.50;99.90
12015;DHT22;6066;48.138;16.402;2023-02-28T15:42:59;5.50;99.90
12015;DHT22;6066;48.138;16.402;2023-02-28T15:45:28;5.50;99.90
12015;DHT22;6066;48.138;16.402;2023-02-28T15:47:55;5.40;99.90
12015;DHT22;6066;48.138;16.402;2023-02-28T15:50:22;5.40;99.90
12015;DHT22;6066;48.138;16.402;2023-02-28T15:52:49;5.30;99.90
12015;DHT22;6066;48.138;16.402;2023-02-28T15:55:19;5.20;99.90
12015;DHT22;6066;48.138;16.402;2023-02-28T15:57:47;5.10;99.90
12015;DHT22;6066;48.138;16.402;2023-02-28T16:00:15;5.00;99.90
12015;DHT22;6066;48.138;16.402;2023-02-28T16:02:44;5.00;99.90
12015;DHT22;6066;48.138;16.402;2023-02-28T16:07:57;4.90;99.90
12015;DHT22;6066;48.138;16.402;2023-02-28T16:10:25;4.90;99.90
12015;DHT22;6066;48.138;16.402;2023-02-28T16:12:53;4.80;99.90
12015;DHT22;6066;48.138;16.402;2023-02-28T16:15:20;4.80;99.90
12015;DHT22;6066;48.138;16.402;2023-02-28T16:17:49;4.70;99.90
12015;DHT22;6066;48.138;16.402;2023-02-28T16:20:17;4.70;99.90
12015;DHT22;6066;48.138;16.402;2023-02-28T16:22:44;4.60;99.90
12015;DHT22;6066;48.138;16.402;2023-02-28T16:25:12;4.60;99.90
12015;DHT22;6066;48.138;16.402;2023-02-28T16:27:38;4.50;99.90